Flight Track Log - Related Links

Times and Time Zones

All times are in EDT time to prevent confusion due to time zone crossing. See the FLG3861 flight status page for this flight to view local times or setup timezone preferences in your user account.

Time Position Orientation Groundspeed Altitude Reporting Facility
EDT Latitude Longitude Course Direction KTS MPH feet Rate Location/Type
Tue 09:44:44 PM 42.2017 -83.3583 167° South 148 170 1,300  Level Cleveland Center
Tue 09:45:15 PM 42.1808 -83.3517 167° South 178 205 2,000 1,761 Climbing Cleveland Center
Tue 09:46:16 PM 42.1250 -83.3381 170° South 209 241 4,000 1,537 Climbing Cleveland Center
Tue 09:47:16 PM 42.0914 -83.2611 120° Southeast 323 372 5,100 1,934 Climbing Cleveland Center
Tue 09:48:17 PM 42.1314 -83.1536 63° Northeast 309 356 7,900 2,297 Climbing Cleveland Center
Tue 09:49:24 PM 42.1711 -83.0431 64° Northeast 308 354 10,000 1,595 Climbing Cleveland Center
Tue 09:49:36 PM 42.1869 -82.9931 67° East 355 409 10,000  Level Cleveland Center
Tue 09:50:36 PM 42.2225 -82.8825 66° East 394 453 10,000 1,150 Level Cleveland Center
Tue 09:51:36 PM 42.2689 -82.7439 66° East 404 465 12,300 1,750 Climbing Cleveland Center
Tue 09:52:36 PM 42.3131 -82.6133 65° Northeast 399 459 13,500 1,100 Climbing Cleveland Center
Tue 09:53:36 PM 42.3569 -82.4825 66° East 404 465 14,500 1,450 Climbing Cleveland Center
Tue 09:54:36 PM 42.3614 -82.3311 88° East 399 459 16,400 1,550 Climbing Cleveland Center
Tue 09:55:36 PM 42.3553 -82.1819 93° East 386 444 17,600 1,300 Climbing Cleveland Center
Tue 09:56:36 PM 42.3492 -82.0189 93° East 397 457 19,000 1,150 Climbing Cleveland Center
Tue 09:57:36 PM 42.3425 -81.8669 93° East 405 466 19,900 700 Climbing Cleveland Center
Tue 09:58:36 PM 42.3358 -81.7067 93° East 417 480 20,400 500 Climbing Cleveland Center
Tue 09:59:36 PM 42.3269 -81.5436 94° East 430 495 20,900 600 Climbing Cleveland Center
Tue 10:00:36 PM 42.3219 -81.3806 92° East 430 495 21,600 700 Climbing Cleveland Center
Tue 10:01:36 PM 42.3125 -81.2150 94° East 430 495 22,300 700 Climbing Cleveland Center
Tue 10:02:36 PM 42.3050 -81.0547 94° East 436 502 23,000 650 Climbing Cleveland Center
Tue 10:03:36 PM 42.2972 -80.9144 94° East 431 496 23,600 650 Climbing Cleveland Center
Tue 10:04:36 PM 42.2956 -80.7489 91° East 431 496 24,300 600 Climbing Cleveland Center
Tue 10:05:36 PM 42.2956 -80.5858 90° East 423 487 24,800 350 Climbing Cleveland Center
Tue 10:06:36 PM 42.2956 -80.4258 90° East 423 487 25,000 300 Climbing Cleveland Center
Tue 10:07:36 PM 42.2950 -80.2519 90° East 442 509 25,400 500 Climbing Cleveland Center
Tue 10:08:36 PM 42.2944 -80.0864 90° East 442 509 26,000 300 Climbing Cleveland Center
Tue 10:09:36 PM 42.2936 -79.9208 90° East 442 509 26,000  Level Cleveland Center
Tue 10:10:36 PM 42.2925 -79.7467 90° East 442 509 26,000  Level Cleveland Center
Tue 10:11:36 PM 42.2911 -79.5728 91° East 452 520 26,000  Level Cleveland Center
Tue 10:12:36 PM 42.2894 -79.3931 91° East 463 533 26,000  Level Cleveland Center
Tue 10:13:36 PM 42.2875 -79.2192 91° East 463 533 26,000  Level Cleveland Center
Tue 10:14:36 PM 42.2853 -79.0422 91° East 463 533 26,000  Level Cleveland Center
Tue 10:15:36 PM 42.2844 -78.8458 90° East 463 533 26,000  Level Cleveland Center
Tue 10:16:36 PM 42.2861 -78.6719 89° East 463 533 26,000 -150 Level Cleveland Center
Tue 10:17:36 PM 42.3311 -78.5047 70° East 456 525 25,700 -700 Descending Cleveland Center
Tue 10:18:36 PM 42.3736 -78.3347 71° East 461 531 24,600 -1,050 Descending Cleveland Center
Tue 10:19:36 PM 42.3742 -78.1492 90° East 471 542 23,600 -800 Descending Cleveland Center
Tue 10:20:36 PM 42.3600 -77.9756 96° East 471 542 23,000 -608 Descending Cleveland Center
Tue 10:22:14 PM 42.3383 -77.6914 96° East 482 555 22,000 -755 Descending New Center
Tue 10:23:15 PM 42.3264 -77.5331 96° East 477 549 21,000 -942 Descending New Center
Tue 10:24:15 PM 42.3133 -77.3578 96° East 472 543 20,100 -950 Descending New Center
Tue 10:25:15 PM 42.3022 -77.1828 95° East 472 543 19,100 -1,008 Descending New Center
Tue 10:26:14 PM 42.2903 -77.0161 95° East 467 537 18,100 -1,765 Descending New Center
Tue 10:27:14 PM 42.2778 -76.8553 96° East 451 519 15,600 -2,950 Descending New Center
Tue 10:28:14 PM 42.2628 -76.6942 97° East 422 486 12,200 -2,579 Descending New Center
Tue 10:29:15 PM 42.2508 -76.5558 97° East 390 449 10,400 -1,488 Descending New Center
Tue 10:30:15 PM 42.2600 -76.4528 83° East 365 420 9,200 -756 Descending New Center
Tue 10:31:14 PM 42.2842 -76.3400 74° East 323 372 8,900 -1,150 Descending New Center
Tue 10:32:15 PM 42.3039 -76.2294 76° East 307 353 6,900 -2,150 Descending New Center
Tue 10:33:14 PM 42.3233 -76.1217 76° East 302 348 4,600 -1,800 Descending New Center
Tue 10:34:15 PM 42.2911 -76.0464 120° Southeast 258 297 3,300 -1,091 Descending New Center
Tue 10:35:15 PM 42.2450 -76.0119 151° Southeast 200 230 2,400 -600 Descending New Center
Tue 10:36:15 PM 42.2100 -75.9531 129° Southeast 185 213 2,100 3,328 Descending New Center
Tue 10:37:14 PM 42.1747 -75.9000 132° Southeast 185 213 9,000 3,450 Climbing New Center
Tue 10:38:15 PM 42.1417 -75.8497 132° Southeast 185 213 9,000  Level New Center
Tue 10:39:15 PM 42.1064 -75.7967 132° Southeast 185 213 9,000  Level New Center
Tue 10:40:14 PM 42.0928 -75.7761 132° Southeast 185 213 9,000  Level New Center
Tue 10:41:15 PM 42.0928 -75.7761 200° South 185 213 9,000  Level New Center
Tue 10:44:00 PM 42.2000 -75.9667 308° West  Level FlightAware
Tue 10:51:00 PM 42.2084 -75.9796 308° West  Level Estimated
Tue 10:52:00 PM 42.2084 -75.9796 308° West  Level Estimated
Tue 10:53:00 PM 42.2084 -75.9796 308° West  Level Estimated
Tue 10:54:00 PM 42.2084 -75.9796 308° West  Level Estimated
Tue 10:55:00 PM 42.2084 -75.9796 308° West  Level Estimated
Tue 10:56:00 PM 42.2084 -75.9796 308° West  Level Estimated
Tue 10:57:00 PM 42.2084 -75.9796 308° West  Level Estimated
Tue 10:58:00 PM 42.2084 -75.9796 308° West  Level Estimated

Login

Don't have an account? Register now (free) for customized features, flight alerts, and more!